AUA2327 KDFW-LOWW
Flight info
| Callsign | AUA2327 |
|---|---|
| Flight time | N/A |
| Altitude | 35000 |
| Route | MRSSH3 MRSSH MLU STEIT THRSR HRTWL Q54 NUTZE EARZZ Q131 KALDA Q167 TOPRR VALCO KYSKY Q430 FLAPE KURLY KANNI N97B SUPRY 4650N 4840N 4830N 4820N 4815N UMLER UN734 UMOXA KORER OBATO RESMI TEPRI POGZI GELTA LUVAL LUPEN KUNOD VAVOR INPUL NEMAL |
| Aircraft | B772/H-SDE2E3FGHIJ5LORVWXY/LB1D1 |
Departure
| Time | N/A |
|---|---|
| Airport | Dallas Fort Worth International Airport (KDFW) |
Arrival
| Time | 2026-04-26 00:11 |
|---|---|
| Airport | Vienna International Airport (LOWW) |
| Time | Latitude | Longitude | Altitude | Speed | Heading |
|---|---|---|---|---|---|
| 2026-04-25 21:00 | 47.99532 | -19.36713 | 38116 ft | 510 kts | 89° |
| 2026-04-25 21:00 | 47.99561 | -19.34917 | 38119 ft | 510 kts | 89° |
| 2026-04-25 21:01 | 47.99829 | -19.17287 | 38122 ft | 511 kts | 89° |
| 2026-04-25 21:01 | 47.99978 | -19.06688 | 38114 ft | 511 kts | 89° |
| 2026-04-25 21:02 | 48.00116 | -18.96090 | 38118 ft | 510 kts | 90° |
| 2026-04-25 21:02 | 48.00247 | -18.85486 | 38116 ft | 511 kts | 90° |
| 2026-04-25 21:03 | 48.00366 | -18.74896 | 38128 ft | 510 kts | 90° |
| 2026-04-25 21:03 | 48.00475 | -18.64319 | 38131 ft | 509 kts | 90° |
| 2026-04-25 21:04 | 48.00574 | -18.53757 | 38118 ft | 509 kts | 90° |
| 2026-04-25 21:04 | 48.00664 | -18.43158 | 38126 ft | 510 kts | 90° |
| 2026-04-25 21:05 | 48.00747 | -18.32576 | 38134 ft | 510 kts | 90° |
| 2026-04-25 21:05 | 48.00822 | -18.21980 | 38141 ft | 511 kts | 91° |
| 2026-04-25 21:06 | 48.00881 | -18.11442 | 38140 ft | 511 kts | 91° |
| 2026-04-25 21:06 | 48.00931 | -18.00834 | 38143 ft | 511 kts | 91° |
| 2026-04-25 21:07 | 48.00972 | -17.90220 | 38148 ft | 511 kts | 91° |
| 2026-04-25 21:07 | 48.01004 | -17.79622 | 38149 ft | 511 kts | 91° |
| 2026-04-25 21:08 | 48.01028 | -17.69004 | 38156 ft | 511 kts | 91° |
| 2026-04-25 21:08 | 48.01041 | -17.58397 | 38158 ft | 510 kts | 91° |
| 2026-04-25 21:09 | 48.01039 | -17.42490 | 38167 ft | 511 kts | 91° |
| 2026-04-25 21:09 | 48.01028 | -17.31892 | 38159 ft | 510 kts | 91° |
| 2026-04-25 21:10 | 48.01008 | -17.21290 | 38161 ft | 510 kts | 92° |
| 2026-04-25 21:10 | 48.00978 | -17.10699 | 38156 ft | 510 kts | 92° |
| 2026-04-25 21:11 | 48.00936 | -17.00112 | 38167 ft | 510 kts | 92° |
| 2026-04-25 21:11 | 48.00885 | -16.89526 | 38167 ft | 510 kts | 92° |
| 2026-04-25 21:12 | 48.00824 | -16.78941 | 38176 ft | 510 kts | 92° |
| 2026-04-25 21:12 | 48.00767 | -16.70137 | 38171 ft | 510 kts | 93° |
| 2026-04-25 21:13 | 48.00673 | -16.57731 | 38182 ft | 511 kts | 93° |
| 2026-04-25 21:13 | 48.00582 | -16.47106 | 38182 ft | 512 kts | 93° |
| 2026-04-25 21:14 | 48.00485 | -16.36530 | 38187 ft | 513 kts | 93° |
| 2026-04-25 21:14 | 48.00375 | -16.25874 | 38189 ft | 514 kts | 93° |
| 2026-04-25 21:15 | 48.00255 | -16.15195 | 38198 ft | 515 kts | 94° |
| 2026-04-25 21:15 | 48.00126 | -16.04512 | 38190 ft | 515 kts | 94° |
| 2026-04-25 21:16 | 47.99986 | -15.93816 | 38196 ft | 515 kts | 94° |
| 2026-04-25 21:16 | 47.99838 | -15.83128 | 38196 ft | 515 kts | 94° |
| 2026-04-25 21:17 | 47.99677 | -15.72442 | 38195 ft | 515 kts | 94° |
| 2026-04-25 21:17 | 47.99505 | -15.61766 | 38205 ft | 515 kts | 94° |
| 2026-04-25 21:18 | 47.99327 | -15.51077 | 38199 ft | 515 kts | 94° |
| 2026-04-25 21:18 | 47.99138 | -15.40419 | 38200 ft | 514 kts | 95° |
| 2026-04-25 21:19 | 47.98938 | -15.29730 | 38206 ft | 514 kts | 95° |
| 2026-04-25 21:19 | 47.98731 | -15.19126 | 38210 ft | 514 kts | 95° |
| 2026-04-25 21:20 | 47.98549 | -15.10187 | 38212 ft | 514 kts | 95° |
| 2026-04-25 21:20 | 47.98276 | -14.97830 | 38198 ft | 513 kts | 96° |
| 2026-04-25 21:21 | 47.97766 | -14.87221 | 38212 ft | 511 kts | 98° |
| 2026-04-25 21:21 | 47.97126 | -14.76666 | 38222 ft | 511 kts | 98° |
| 2026-04-25 21:22 | 47.96506 | -14.66107 | 38225 ft | 511 kts | 98° |
| 2026-04-25 21:22 | 47.96094 | -14.58828 | 38221 ft | 511 kts | 98° |
| 2026-04-25 21:23 | 47.95502 | -14.48317 | 38219 ft | 510 kts | 98° |
| 2026-04-25 21:23 | 47.94901 | -14.37754 | 38226 ft | 510 kts | 98° |
| 2026-04-25 21:24 | 47.94292 | -14.27259 | 38228 ft | 510 kts | 98° |
| 2026-04-25 21:24 | 47.93668 | -14.16743 | 38231 ft | 509 kts | 98° |
| 2026-04-25 21:25 | 47.93036 | -14.06208 | 38220 ft | 509 kts | 98° |
| 2026-04-25 21:25 | 47.92396 | -13.95701 | 38235 ft | 509 kts | 99° |
| 2026-04-25 21:26 | 47.91743 | -13.85173 | 38232 ft | 510 kts | 99° |
| 2026-04-25 21:26 | 47.91082 | -13.74662 | 38234 ft | 510 kts | 99° |
| 2026-04-25 21:27 | 47.90411 | -13.64131 | 38218 ft | 510 kts | 99° |
| 2026-04-25 21:27 | 47.89738 | -13.53704 | 38235 ft | 510 kts | 99° |
| 2026-04-25 21:28 | 47.89047 | -13.43165 | 38238 ft | 510 kts | 99° |
| 2026-04-25 21:28 | 47.88347 | -13.32656 | 38237 ft | 510 kts | 99° |
| 2026-04-25 21:29 | 47.87637 | -13.22119 | 38230 ft | 510 kts | 99° |
| 2026-04-25 21:29 | 47.86916 | -13.11604 | 38240 ft | 510 kts | 99° |
| 2026-04-25 21:30 | 47.86186 | -13.01082 | 38245 ft | 511 kts | 99° |
| 2026-04-25 21:30 | 47.85569 | -12.92350 | 38245 ft | 510 kts | 99° |
| 2026-04-25 21:31 | 47.84699 | -12.80111 | 38240 ft | 511 kts | 99° |
| 2026-04-25 21:31 | 47.83946 | -12.69586 | 38230 ft | 511 kts | 99° |
| 2026-04-25 21:32 | 47.83172 | -12.59078 | 38244 ft | 510 kts | 99° |
| 2026-04-25 21:32 | 47.82395 | -12.48572 | 38241 ft | 510 kts | 99° |
| 2026-04-25 21:33 | 47.81614 | -12.38132 | 38250 ft | 510 kts | 99° |
| 2026-04-25 21:33 | 47.80820 | -12.27663 | 38231 ft | 510 kts | 99° |
| 2026-04-25 21:34 | 47.80013 | -12.17177 | 38250 ft | 510 kts | 99° |
| 2026-04-25 21:34 | 47.79209 | -12.06839 | 38236 ft | 510 kts | 99° |
| 2026-04-25 21:35 | 47.78388 | -11.96378 | 38248 ft | 509 kts | 99° |
| 2026-04-25 21:35 | 47.77554 | -11.85916 | 38224 ft | 509 kts | 99° |
| 2026-04-25 21:36 | 47.76712 | -11.75471 | 38248 ft | 509 kts | 99° |
| 2026-04-25 21:36 | 47.75861 | -11.65037 | 38246 ft | 509 kts | 99° |
| 2026-04-25 21:37 | 47.75146 | -11.56345 | 38247 ft | 510 kts | 100° |
| 2026-04-25 21:37 | 47.74130 | -11.44129 | 38249 ft | 510 kts | 100° |
| 2026-04-25 21:38 | 47.73249 | -11.33668 | 38249 ft | 511 kts | 100° |
| 2026-04-25 21:38 | 47.72356 | -11.23206 | 38249 ft | 511 kts | 100° |
| 2026-04-25 21:39 | 47.71453 | -11.12728 | 38251 ft | 511 kts | 100° |
| 2026-04-25 21:39 | 47.70552 | -11.02331 | 38250 ft | 511 kts | 100° |
| 2026-04-25 21:40 | 47.69632 | -10.91848 | 38239 ft | 511 kts | 100° |
| 2026-04-25 21:40 | 47.68700 | -10.81384 | 38251 ft | 512 kts | 100° |
| 2026-04-25 21:41 | 47.67756 | -10.70894 | 38254 ft | 512 kts | 100° |
| 2026-04-25 21:41 | 47.66804 | -10.60425 | 38253 ft | 513 kts | 100° |
| 2026-04-25 21:42 | 47.65840 | -10.49927 | 38242 ft | 513 kts | 100° |
| 2026-04-25 21:42 | 47.64871 | -10.39459 | 38251 ft | 513 kts | 100° |
| 2026-04-25 21:43 | 47.63888 | -10.28974 | 38252 ft | 513 kts | 100° |
| 2026-04-25 21:43 | 47.62895 | -10.18496 | 38251 ft | 514 kts | 100° |
| 2026-04-25 21:44 | 47.61892 | -10.08001 | 38239 ft | 514 kts | 101° |
| 2026-04-25 21:45 | 47.60370 | -9.92272 | 38249 ft | 514 kts | 101° |
| 2026-04-25 21:45 | 47.59342 | -9.81785 | 38251 ft | 514 kts | 101° |
| 2026-04-25 21:46 | 47.58305 | -9.71304 | 38252 ft | 514 kts | 101° |
| 2026-04-25 21:46 | 47.57437 | -9.62596 | 38255 ft | 514 kts | 101° |
| 2026-04-25 21:47 | 47.56383 | -9.52123 | 38259 ft | 515 kts | 101° |
| 2026-04-25 21:47 | 47.55316 | -9.41642 | 38241 ft | 515 kts | 101° |
| 2026-04-25 21:48 | 47.54240 | -9.31158 | 38256 ft | 515 kts | 101° |
| 2026-04-25 21:48 | 47.53156 | -9.20685 | 38240 ft | 515 kts | 101° |
| 2026-04-25 21:49 | 47.52065 | -9.10221 | 38257 ft | 514 kts | 101° |
| 2026-04-25 21:49 | 47.50962 | -8.99769 | 38255 ft | 514 kts | 101° |
| 2026-04-25 21:50 | 47.49853 | -8.89332 | 38255 ft | 514 kts | 101° |
| 2026-04-25 21:50 | 47.48734 | -8.78896 | 38242 ft | 512 kts | 101° |
| 2026-04-25 21:51 | 47.48537 | -8.68428 | 38247 ft | 515 kts | 86° |
| 2026-04-25 21:51 | 47.49337 | -8.57893 | 38335 ft | 514 kts | 84° |
| 2026-04-25 21:51 | 47.49804 | -8.52671 | 38470 ft | 511 kts | 84° |
| 2026-04-25 21:52 | 47.50156 | -8.47397 | 38593 ft | 508 kts | 89° |
| 2026-04-25 21:52 | 47.50248 | -8.42179 | 38704 ft | 508 kts | 91° |
| 2026-04-25 21:52 | 47.50207 | -8.36954 | 38809 ft | 508 kts | 92° |
| 2026-04-25 21:52 | 47.50134 | -8.31808 | 38940 ft | 507 kts | 92° |
| 2026-04-25 21:53 | 47.50073 | -8.26594 | 39043 ft | 507 kts | 92° |
| 2026-04-25 21:53 | 47.50030 | -8.16095 | 39183 ft | 508 kts | 91° |
| 2026-04-25 21:54 | 47.50017 | -8.05628 | 39239 ft | 510 kts | 91° |
| 2026-04-25 21:54 | 47.50200 | -7.95121 | 39243 ft | 512 kts | 86° |
| 2026-04-25 21:55 | 47.50812 | -7.84678 | 39233 ft | 514 kts | 85° |
| 2026-04-25 21:55 | 47.51445 | -7.74130 | 39238 ft | 515 kts | 86° |
| 2026-04-25 21:56 | 47.52046 | -7.63557 | 39238 ft | 516 kts | 86° |
| 2026-04-25 21:56 | 47.52620 | -7.52977 | 39228 ft | 516 kts | 86° |
| 2026-04-25 21:57 | 47.53181 | -7.42387 | 39234 ft | 515 kts | 86° |
| 2026-04-25 21:57 | 47.53730 | -7.31833 | 39236 ft | 514 kts | 86° |
| 2026-04-25 21:58 | 47.54269 | -7.21289 | 39233 ft | 513 kts | 86° |
| 2026-04-25 21:58 | 47.54800 | -7.10768 | 39230 ft | 512 kts | 86° |
| 2026-04-25 21:59 | 47.55318 | -7.00280 | 39237 ft | 510 kts | 86° |
| 2026-04-25 21:59 | 47.55825 | -6.89811 | 39233 ft | 509 kts | 86° |
| 2026-04-25 22:00 | 47.56566 | -6.74194 | 39236 ft | 507 kts | 86° |
| 2026-04-25 22:00 | 47.57048 | -6.63740 | 39244 ft | 506 kts | 86° |
| 2026-04-25 22:01 | 47.57514 | -6.53422 | 39243 ft | 505 kts | 86° |
| 2026-04-25 22:01 | 47.57903 | -6.44723 | 39236 ft | 505 kts | 86° |
| 2026-04-25 22:02 | 47.58428 | -6.32674 | 39232 ft | 504 kts | 86° |
| 2026-04-25 22:02 | 47.58872 | -6.22318 | 39233 ft | 504 kts | 86° |
| 2026-04-25 22:03 | 47.59302 | -6.11924 | 39231 ft | 504 kts | 86° |
| 2026-04-25 22:03 | 47.59723 | -6.01562 | 39228 ft | 505 kts | 86° |
| 2026-04-25 22:04 | 47.60136 | -5.91163 | 39228 ft | 505 kts | 86° |
| 2026-04-25 22:04 | 47.60541 | -5.80774 | 39221 ft | 506 kts | 86° |
| 2026-04-25 22:05 | 47.60939 | -5.70362 | 39227 ft | 507 kts | 86° |
| 2026-04-25 22:05 | 47.61326 | -5.59907 | 39224 ft | 508 kts | 86° |
| 2026-04-25 22:06 | 47.61705 | -5.49439 | 39222 ft | 509 kts | 86° |
| 2026-04-25 22:06 | 47.62075 | -5.38963 | 39228 ft | 510 kts | 86° |
| 2026-04-25 22:07 | 47.62375 | -5.30230 | 39221 ft | 510 kts | 86° |
| 2026-04-25 22:07 | 47.62671 | -5.21447 | 39216 ft | 510 kts | 86° |
| 2026-04-25 22:08 | 47.63021 | -5.10795 | 39217 ft | 510 kts | 86° |
| 2026-04-25 22:08 | 47.63357 | -5.00240 | 39216 ft | 509 kts | 86° |
| 2026-04-25 22:09 | 47.63682 | -4.89761 | 39208 ft | 508 kts | 86° |
| 2026-04-25 22:09 | 47.63996 | -4.79313 | 39200 ft | 507 kts | 86° |
| 2026-04-25 22:10 | 47.64302 | -4.68879 | 39194 ft | 506 kts | 86° |
| 2026-04-25 22:10 | 47.64592 | -4.58556 | 39195 ft | 505 kts | 86° |
| 2026-04-25 22:11 | 47.64877 | -4.48149 | 39187 ft | 504 kts | 86° |
| 2026-04-25 22:11 | 47.65151 | -4.37753 | 39188 ft | 505 kts | 86° |
| 2026-04-25 22:12 | 47.65418 | -4.27333 | 39185 ft | 505 kts | 86° |
| 2026-04-25 22:12 | 47.65635 | -4.18609 | 39185 ft | 505 kts | 86° |
| 2026-04-25 22:13 | 47.65923 | -4.06507 | 39180 ft | 505 kts | 86° |
| 2026-04-25 22:13 | 47.66160 | -3.96118 | 39172 ft | 504 kts | 86° |
| 2026-04-25 22:14 | 47.66387 | -3.85732 | 39173 ft | 503 kts | 86° |
| 2026-04-25 22:14 | 47.66605 | -3.75384 | 39178 ft | 502 kts | 86° |
| 2026-04-25 22:15 | 47.66814 | -3.65039 | 39171 ft | 501 kts | 86° |
| 2026-04-25 22:16 | 47.67107 | -3.49538 | 39168 ft | 501 kts | 86° |
| 2026-04-25 22:16 | 47.67290 | -3.39280 | 39172 ft | 500 kts | 86° |
| 2026-04-25 22:17 | 47.67468 | -3.28898 | 39177 ft | 501 kts | 86° |
| 2026-04-25 22:17 | 47.67634 | -3.18625 | 39182 ft | 501 kts | 86° |
| 2026-04-25 22:18 | 47.67790 | -3.08277 | 39180 ft | 502 kts | 87° |
| 2026-04-25 22:18 | 47.67938 | -2.97915 | 39183 ft | 503 kts | 87° |
| 2026-04-25 22:19 | 47.68077 | -2.87545 | 39187 ft | 503 kts | 87° |
| 2026-04-25 22:19 | 47.68205 | -2.77162 | 39185 ft | 503 kts | 87° |
| 2026-04-25 22:20 | 47.68327 | -2.66789 | 39184 ft | 503 kts | 87° |
| 2026-04-25 22:20 | 47.68439 | -2.56402 | 39184 ft | 503 kts | 86° |
| 2026-04-25 22:21 | 47.69163 | -2.46115 | 39194 ft | 499 kts | 76° |
| 2026-04-25 22:21 | 47.70919 | -2.36185 | 39191 ft | 497 kts | 72° |
| 2026-04-25 22:22 | 47.72748 | -2.26286 | 39186 ft | 497 kts | 72° |
| 2026-04-25 22:22 | 47.74531 | -2.16394 | 39187 ft | 496 kts | 72° |
| 2026-04-25 22:23 | 47.76290 | -2.06481 | 39194 ft | 496 kts | 73° |
| 2026-04-25 22:23 | 47.78033 | -1.96556 | 39185 ft | 496 kts | 73° |
| 2026-04-25 22:24 | 47.79756 | -1.86702 | 39188 ft | 496 kts | 73° |
| 2026-04-25 22:24 | 47.81487 | -1.76759 | 39176 ft | 497 kts | 73° |
| 2026-04-25 22:25 | 47.83211 | -1.66800 | 39181 ft | 498 kts | 73° |
| 2026-04-25 22:25 | 47.84943 | -1.56739 | 39182 ft | 499 kts | 73° |
| 2026-04-25 22:26 | 47.86646 | -1.46785 | 39184 ft | 500 kts | 73° |
| 2026-04-25 22:26 | 47.88354 | -1.36746 | 39184 ft | 500 kts | 73° |
| 2026-04-25 22:27 | 47.90055 | -1.26687 | 39190 ft | 501 kts | 73° |
| 2026-04-25 22:27 | 47.91752 | -1.16595 | 39183 ft | 502 kts | 74° |
| 2026-04-25 22:28 | 47.93443 | -1.06481 | 39189 ft | 503 kts | 74° |
| 2026-04-25 22:28 | 47.95124 | -0.96363 | 39182 ft | 503 kts | 74° |
| 2026-04-25 22:29 | 47.96798 | -0.86231 | 39188 ft | 503 kts | 74° |
| 2026-04-25 22:29 | 47.98466 | -0.76084 | 39193 ft | 503 kts | 75° |
| 2026-04-25 22:30 | 48.01065 | -0.60922 | 39189 ft | 501 kts | 71° |
| 2026-04-25 22:30 | 48.02824 | -0.52680 | 39187 ft | 501 kts | 70° |
| 2026-04-25 22:31 | 48.05008 | -0.42803 | 39188 ft | 501 kts | 70° |
| 2026-04-25 22:31 | 48.07501 | -0.31216 | 39190 ft | 501 kts | 71° |
| 2026-04-25 22:32 | 48.09236 | -0.22957 | 39194 ft | 501 kts | 71° |
| 2026-04-25 22:32 | 48.11308 | -0.13015 | 39193 ft | 500 kts | 71° |
| 2026-04-25 22:33 | 48.13369 | -0.03063 | 39198 ft | 500 kts | 71° |
| 2026-04-25 22:33 | 48.15425 | 0.06877 | 39179 ft | 499 kts | 72° |
| 2026-04-25 22:34 | 48.17467 | 0.16795 | 39187 ft | 498 kts | 72° |
| 2026-04-25 22:34 | 48.19496 | 0.26715 | 39194 ft | 498 kts | 72° |
| 2026-04-25 22:35 | 48.21517 | 0.36643 | 39195 ft | 497 kts | 72° |
| 2026-04-25 22:35 | 48.23528 | 0.46569 | 39207 ft | 497 kts | 72° |
| 2026-04-25 22:36 | 48.25528 | 0.56495 | 39203 ft | 497 kts | 72° |
| 2026-04-25 22:36 | 48.27522 | 0.66428 | 39204 ft | 497 kts | 72° |
| 2026-04-25 22:37 | 48.29492 | 0.76303 | 39209 ft | 497 kts | 72° |
| 2026-04-25 22:37 | 48.31469 | 0.86258 | 39210 ft | 498 kts | 72° |
| 2026-04-25 22:38 | 48.33440 | 0.96235 | 39213 ft | 499 kts | 72° |
| 2026-04-25 22:38 | 48.35406 | 1.06240 | 39204 ft | 499 kts | 72° |
| 2026-04-25 22:39 | 48.37364 | 1.16258 | 39209 ft | 499 kts | 72° |
| 2026-04-25 22:39 | 48.39314 | 1.26284 | 39213 ft | 500 kts | 73° |
| 2026-04-25 22:40 | 48.41255 | 1.36323 | 39216 ft | 499 kts | 72° |
| 2026-04-25 22:40 | 48.43185 | 1.46354 | 39204 ft | 499 kts | 73° |
| 2026-04-25 22:41 | 48.45105 | 1.56375 | 39198 ft | 498 kts | 73° |
| 2026-04-25 22:41 | 48.47015 | 1.66402 | 39206 ft | 497 kts | 73° |
| 2026-04-25 22:42 | 48.48910 | 1.76412 | 39202 ft | 497 kts | 73° |
| 2026-04-25 22:42 | 48.50784 | 1.86355 | 39203 ft | 496 kts | 73° |
| 2026-04-25 22:43 | 48.52663 | 1.96383 | 39204 ft | 496 kts | 73° |
| 2026-04-25 22:43 | 48.54531 | 2.06406 | 39206 ft | 496 kts | 73° |
| 2026-04-25 22:44 | 48.56223 | 2.16450 | 39205 ft | 496 kts | 80° |
| 2026-04-25 22:44 | 48.56774 | 2.26819 | 39203 ft | 495 kts | 92° |
| 2026-04-25 22:45 | 48.56433 | 2.37180 | 39202 ft | 495 kts | 94° |
| 2026-04-25 22:45 | 48.56064 | 2.47547 | 39213 ft | 495 kts | 93° |
| 2026-04-25 22:46 | 48.55738 | 2.57941 | 39216 ft | 495 kts | 93° |
| 2026-04-25 22:46 | 48.55418 | 2.68321 | 39214 ft | 496 kts | 93° |
| 2026-04-25 22:47 | 48.55082 | 2.78717 | 39211 ft | 496 kts | 94° |
| 2026-04-25 22:47 | 48.54757 | 2.89110 | 39197 ft | 496 kts | 94° |
| 2026-04-25 22:48 | 48.54422 | 2.99530 | 39195 ft | 496 kts | 94° |
| 2026-04-25 22:48 | 48.54067 | 3.09916 | 39202 ft | 495 kts | 95° |
| 2026-04-25 22:49 | 48.53702 | 3.20200 | 39194 ft | 492 kts | 94° |
| 2026-04-25 22:49 | 48.53333 | 3.30430 | 39189 ft | 490 kts | 94° |
| 2026-04-25 22:50 | 48.52957 | 3.40676 | 39192 ft | 489 kts | 95° |
| 2026-04-25 22:50 | 48.52571 | 3.50905 | 39185 ft | 488 kts | 95° |
| 2026-04-25 22:51 | 48.52178 | 3.61107 | 39191 ft | 486 kts | 95° |
| 2026-04-25 22:51 | 48.51775 | 3.71288 | 39189 ft | 487 kts | 95° |
| 2026-04-25 22:52 | 48.51364 | 3.81484 | 39186 ft | 487 kts | 95° |
| 2026-04-25 22:52 | 48.51084 | 3.88305 | 39188 ft | 488 kts | 95° |
| 2026-04-25 22:53 | 48.50629 | 3.98872 | 39184 ft | 488 kts | 97° |
| 2026-04-25 22:53 | 48.49398 | 4.08881 | 39179 ft | 486 kts | 107° |
| 2026-04-25 22:54 | 48.47553 | 4.18695 | 39183 ft | 486 kts | 107° |
| 2026-04-25 22:54 | 48.45714 | 4.28487 | 39187 ft | 486 kts | 107° |
| 2026-04-25 22:55 | 48.43908 | 4.38250 | 39173 ft | 487 kts | 107° |
| 2026-04-25 22:55 | 48.42097 | 4.48065 | 39179 ft | 487 kts | 107° |
| 2026-04-25 22:56 | 48.40270 | 4.57908 | 39177 ft | 487 kts | 107° |
| 2026-04-25 22:56 | 48.38438 | 4.67722 | 39174 ft | 487 kts | 107° |
| 2026-04-25 22:57 | 48.36596 | 4.77530 | 39169 ft | 487 kts | 108° |
| 2026-04-25 22:57 | 48.34751 | 4.87312 | 39169 ft | 487 kts | 108° |
| 2026-04-25 22:58 | 48.32893 | 4.97114 | 39167 ft | 486 kts | 108° |
| 2026-04-25 22:58 | 48.31034 | 5.06876 | 39166 ft | 486 kts | 108° |
| 2026-04-25 22:59 | 48.29876 | 5.16892 | 39180 ft | 489 kts | 96° |
| 2026-04-25 22:59 | 48.30035 | 5.27114 | 39172 ft | 492 kts | 87° |
| 2026-04-25 23:00 | 48.30743 | 5.37337 | 39180 ft | 492 kts | 86° |
| 2026-04-25 23:00 | 48.31444 | 5.47490 | 39178 ft | 492 kts | 86° |
| 2026-04-25 23:01 | 48.32108 | 5.57731 | 39188 ft | 493 kts | 87° |
| 2026-04-25 23:01 | 48.32743 | 5.67984 | 39172 ft | 494 kts | 87° |
| 2026-04-25 23:02 | 48.33366 | 5.78272 | 39179 ft | 494 kts | 87° |
| 2026-04-25 23:02 | 48.33982 | 5.88566 | 39177 ft | 495 kts | 87° |
| 2026-04-25 23:03 | 48.34593 | 5.98883 | 39183 ft | 496 kts | 87° |
| 2026-04-25 23:03 | 48.35193 | 6.09213 | 39165 ft | 497 kts | 87° |
| 2026-04-25 23:04 | 48.35690 | 6.17827 | 39187 ft | 498 kts | 88° |
| 2026-04-25 23:04 | 48.36376 | 6.29964 | 39181 ft | 499 kts | 88° |
| 2026-04-25 23:05 | 48.36954 | 6.40396 | 39183 ft | 500 kts | 88° |
| 2026-04-25 23:05 | 48.37533 | 6.51039 | 39176 ft | 501 kts | 87° |
| 2026-04-25 23:06 | 48.38085 | 6.61295 | 39180 ft | 502 kts | 87° |
| 2026-04-25 23:06 | 48.38638 | 6.71765 | 39174 ft | 502 kts | 87° |
| 2026-04-25 23:07 | 48.39178 | 6.82181 | 39171 ft | 503 kts | 87° |
| 2026-04-25 23:07 | 48.39712 | 6.92677 | 39170 ft | 503 kts | 87° |
| 2026-04-25 23:08 | 48.40237 | 7.03194 | 39175 ft | 504 kts | 87° |
| 2026-04-25 23:08 | 48.40754 | 7.13709 | 39166 ft | 504 kts | 87° |
| 2026-04-25 23:09 | 48.41261 | 7.24229 | 39179 ft | 504 kts | 87° |
| 2026-04-25 23:09 | 48.41758 | 7.34757 | 39168 ft | 504 kts | 87° |
| 2026-04-25 23:10 | 48.42245 | 7.45293 | 39163 ft | 505 kts | 87° |
| 2026-04-25 23:10 | 48.42724 | 7.55825 | 39171 ft | 505 kts | 87° |
| 2026-04-25 23:11 | 48.43191 | 7.66310 | 39158 ft | 505 kts | 87° |
| 2026-04-25 23:11 | 48.43440 | 7.76924 | 39155 ft | 504 kts | 94° |
| 2026-04-25 23:12 | 48.42967 | 7.87445 | 39159 ft | 503 kts | 95° |
| 2026-04-25 23:12 | 48.42444 | 7.97895 | 39162 ft | 504 kts | 95° |
| 2026-04-25 23:13 | 48.41943 | 8.08431 | 39165 ft | 505 kts | 95° |
| 2026-04-25 23:13 | 48.41457 | 8.18954 | 39161 ft | 505 kts | 95° |
| 2026-04-25 23:14 | 48.40963 | 8.29506 | 39176 ft | 505 kts | 95° |
| 2026-04-25 23:14 | 48.40458 | 8.40035 | 39172 ft | 505 kts | 95° |
| 2026-04-25 23:15 | 48.39944 | 8.50586 | 39173 ft | 505 kts | 95° |
| 2026-04-25 23:15 | 48.39417 | 8.61122 | 39174 ft | 505 kts | 95° |
| 2026-04-25 23:16 | 48.39150 | 8.66392 | 39314 ft | 506 kts | 94° |
| 2026-04-25 23:16 | 48.38879 | 8.71690 | 39247 ft | 509 kts | 93° |
| 2026-04-25 23:16 | 48.38329 | 8.82336 | 39179 ft | 512 kts | 94° |
| 2026-04-25 23:17 | 48.37767 | 8.93012 | 39180 ft | 512 kts | 94° |
| 2026-04-25 23:17 | 48.37195 | 9.03700 | 39179 ft | 513 kts | 94° |
| 2026-04-25 23:18 | 48.36610 | 9.14411 | 39177 ft | 514 kts | 94° |
| 2026-04-25 23:18 | 48.36015 | 9.25125 | 39174 ft | 515 kts | 94° |
| 2026-04-25 23:19 | 48.35514 | 9.34043 | 39178 ft | 515 kts | 94° |
| 2026-04-25 23:19 | 48.34899 | 9.44778 | 39171 ft | 515 kts | 94° |
| 2026-04-25 23:20 | 48.34277 | 9.55505 | 39170 ft | 514 kts | 94° |
| 2026-04-25 23:20 | 48.33378 | 9.66107 | 39151 ft | 510 kts | 101° |
| 2026-04-25 23:21 | 48.31816 | 9.76473 | 39163 ft | 508 kts | 102° |
| 2026-04-25 23:21 | 48.30210 | 9.86799 | 39156 ft | 507 kts | 102° |
| 2026-04-25 23:22 | 48.28634 | 9.97121 | 39164 ft | 508 kts | 101° |
| 2026-04-25 23:23 | 48.26279 | 10.12674 | 39165 ft | 511 kts | 101° |
| 2026-04-25 23:23 | 48.24691 | 10.23078 | 39167 ft | 512 kts | 101° |
| 2026-04-25 23:24 | 48.23087 | 10.33512 | 39180 ft | 514 kts | 101° |
| 2026-04-25 23:24 | 48.21470 | 10.43957 | 39167 ft | 515 kts | 101° |
| 2026-04-25 23:25 | 48.19849 | 10.54355 | 39166 ft | 515 kts | 101° |
| 2026-04-25 23:25 | 48.18201 | 10.64868 | 39159 ft | 515 kts | 101° |
| 2026-04-25 23:26 | 48.16562 | 10.75230 | 39168 ft | 514 kts | 101° |
| 2026-04-25 23:26 | 48.14907 | 10.85647 | 39158 ft | 514 kts | 101° |
| 2026-04-25 23:27 | 48.13247 | 10.96040 | 39157 ft | 513 kts | 101° |
| 2026-04-25 23:27 | 48.11581 | 11.06403 | 39143 ft | 512 kts | 102° |
| 2026-04-25 23:28 | 48.09907 | 11.16747 | 39164 ft | 511 kts | 102° |
| 2026-04-25 23:28 | 48.08225 | 11.27069 | 39159 ft | 511 kts | 102° |
| 2026-04-25 23:29 | 48.06533 | 11.37389 | 39158 ft | 511 kts | 102° |
| 2026-04-25 23:29 | 48.04832 | 11.47709 | 39157 ft | 511 kts | 102° |
| 2026-04-25 23:30 | 48.03120 | 11.58031 | 39165 ft | 512 kts | 102° |
| 2026-04-25 23:30 | 48.01399 | 11.68347 | 39155 ft | 512 kts | 102° |
| 2026-04-25 23:31 | 47.99679 | 11.78605 | 39153 ft | 512 kts | 102° |
| 2026-04-25 23:31 | 47.97960 | 11.88761 | 39132 ft | 493 kts | 102° |
| 2026-04-25 23:32 | 47.96284 | 11.98625 | 39152 ft | 489 kts | 102° |
| 2026-04-25 23:32 | 47.94609 | 12.08453 | 39154 ft | 489 kts | 102° |
| 2026-04-25 23:33 | 47.92935 | 12.18271 | 39138 ft | 488 kts | 101° |
| 2026-04-25 23:33 | 47.91367 | 12.28158 | 38704 ft | 495 kts | 101° |
| 2026-04-25 23:33 | 47.90589 | 12.33158 | 38014 ft | 494 kts | 101° |
| 2026-04-25 23:34 | 47.89809 | 12.38119 | 37387 ft | 490 kts | 101° |
| 2026-04-25 23:34 | 47.89028 | 12.43047 | 36759 ft | 487 kts | 101° |
| 2026-04-25 23:34 | 47.88245 | 12.47945 | 36101 ft | 486 kts | 101° |
| 2026-04-25 23:34 | 47.87458 | 12.52840 | 35406 ft | 486 kts | 101° |
| 2026-04-25 23:35 | 47.86669 | 12.57736 | 34751 ft | 486 kts | 101° |
| 2026-04-25 23:35 | 47.85883 | 12.62600 | 34282 ft | 481 kts | 101° |
| 2026-04-25 23:35 | 47.85112 | 12.67419 | 33755 ft | 476 kts | 99° |
| 2026-04-25 23:35 | 47.84631 | 12.72260 | 33444 ft | 472 kts | 91° |
| 2026-04-25 23:36 | 47.84527 | 12.77150 | 33233 ft | 473 kts | 85° |
| 2026-04-25 23:36 | 47.85237 | 12.86843 | 33122 ft | 470 kts | 77° |
| 2026-04-25 23:37 | 47.86307 | 12.96438 | 33126 ft | 473 kts | 77° |
| 2026-04-25 23:37 | 47.87366 | 13.06261 | 33133 ft | 485 kts | 77° |
| 2026-04-25 23:38 | 47.88072 | 13.13078 | 32948 ft | 482 kts | 78° |
| 2026-04-25 23:38 | 47.88415 | 13.18028 | 32319 ft | 480 kts | 84° |
| 2026-04-25 23:38 | 47.88506 | 13.22975 | 31835 ft | 475 kts | 86° |
| 2026-04-25 23:38 | 47.88542 | 13.27861 | 31464 ft | 471 kts | 86° |
| 2026-04-25 23:39 | 47.88571 | 13.32742 | 31093 ft | 472 kts | 86° |
| 2026-04-25 23:39 | 47.88606 | 13.37632 | 30745 ft | 472 kts | 86° |
| 2026-04-25 23:39 | 47.88654 | 13.42540 | 30394 ft | 477 kts | 86° |
| 2026-04-25 23:39 | 47.88710 | 13.47499 | 30016 ft | 481 kts | 86° |
| 2026-04-25 23:40 | 47.88771 | 13.52481 | 29590 ft | 480 kts | 86° |
| 2026-04-25 23:40 | 47.88831 | 13.57433 | 29165 ft | 477 kts | 86° |
| 2026-04-25 23:40 | 47.88894 | 13.62405 | 28777 ft | 482 kts | 86° |
| 2026-04-25 23:40 | 47.88956 | 13.67409 | 28376 ft | 484 kts | 86° |
| 2026-04-25 23:41 | 47.89015 | 13.72406 | 27978 ft | 481 kts | 86° |
| 2026-04-25 23:41 | 47.89068 | 13.77363 | 27574 ft | 477 kts | 86° |
| 2026-04-25 23:41 | 47.89118 | 13.82218 | 27191 ft | 473 kts | 86° |
| 2026-04-25 23:41 | 47.89167 | 13.87105 | 26795 ft | 470 kts | 86° |
| 2026-04-25 23:42 | 47.89214 | 13.91963 | 26474 ft | 466 kts | 86° |
| 2026-04-25 23:42 | 47.89258 | 13.96765 | 26185 ft | 463 kts | 86° |
| 2026-04-25 23:42 | 47.89299 | 14.01545 | 25882 ft | 460 kts | 86° |
| 2026-04-25 23:42 | 47.89339 | 14.06308 | 25590 ft | 459 kts | 86° |
| 2026-04-25 23:43 | 47.89378 | 14.11050 | 25304 ft | 458 kts | 86° |
| 2026-04-25 23:43 | 47.89416 | 14.15783 | 25022 ft | 456 kts | 86° |
| 2026-04-25 23:43 | 47.89451 | 14.20505 | 24745 ft | 456 kts | 86° |
| 2026-04-25 23:43 | 47.89483 | 14.25224 | 24451 ft | 455 kts | 86° |
| 2026-04-25 23:44 | 47.89514 | 14.29932 | 24169 ft | 453 kts | 86° |
| 2026-04-25 23:44 | 47.89541 | 14.34612 | 23888 ft | 451 kts | 86° |
| 2026-04-25 23:44 | 47.89566 | 14.39281 | 23618 ft | 450 kts | 86° |
| 2026-04-25 23:44 | 47.89588 | 14.43933 | 23273 ft | 448 kts | 86° |
| 2026-04-25 23:45 | 47.89610 | 14.48572 | 22959 ft | 447 kts | 86° |
| 2026-04-25 23:45 | 47.89631 | 14.53192 | 22627 ft | 445 kts | 87° |
| 2026-04-25 23:45 | 47.89650 | 14.57789 | 22310 ft | 442 kts | 87° |
| 2026-04-25 23:45 | 47.89666 | 14.62312 | 21951 ft | 431 kts | 87° |
| 2026-04-25 23:46 | 47.89679 | 14.66729 | 21610 ft | 422 kts | 87° |
| 2026-04-25 23:46 | 47.89690 | 14.71055 | 21285 ft | 412 kts | 87° |
| 2026-04-25 23:46 | 47.89699 | 14.75281 | 21005 ft | 404 kts | 87° |
| 2026-04-25 23:46 | 47.89706 | 14.79432 | 20706 ft | 397 kts | 87° |
| 2026-04-25 23:47 | 47.89714 | 14.83516 | 20423 ft | 393 kts | 87° |
| 2026-04-25 23:47 | 47.89721 | 14.87574 | 20158 ft | 391 kts | 87° |
| 2026-04-25 23:47 | 47.89726 | 14.91617 | 19901 ft | 390 kts | 87° |
| 2026-04-25 23:47 | 47.89730 | 14.95641 | 19636 ft | 386 kts | 87° |
| 2026-04-25 23:48 | 47.89732 | 14.99609 | 19363 ft | 380 kts | 87° |
| 2026-04-25 23:48 | 47.89732 | 15.03532 | 19074 ft | 377 kts | 87° |
| 2026-04-25 23:48 | 47.89730 | 15.07429 | 18814 ft | 375 kts | 87° |
| 2026-04-25 23:48 | 47.89728 | 15.11303 | 18570 ft | 373 kts | 87° |
| 2026-04-25 23:49 | 47.89724 | 15.15164 | 18306 ft | 372 kts | 87° |
| 2026-04-25 23:49 | 47.89718 | 15.18945 | 17921 ft | 370 kts | 87° |
| 2026-04-25 23:49 | 47.89712 | 15.22774 | 17439 ft | 369 kts | 87° |
| 2026-04-25 23:49 | 47.89705 | 15.26585 | 16992 ft | 367 kts | 87° |
| 2026-04-25 23:50 | 47.89697 | 15.30376 | 16560 ft | 365 kts | 87° |
| 2026-04-25 23:50 | 47.89686 | 15.34154 | 16138 ft | 364 kts | 87° |
| 2026-04-25 23:50 | 47.89657 | 15.37914 | 15757 ft | 362 kts | 89° |
| 2026-04-25 23:50 | 47.89583 | 15.41652 | 15284 ft | 361 kts | 89° |
| 2026-04-25 23:51 | 47.89503 | 15.45413 | 14778 ft | 363 kts | 89° |
| 2026-04-25 23:51 | 47.89377 | 15.49142 | 14415 ft | 357 kts | 94° |
| 2026-04-25 23:51 | 47.88918 | 15.52798 | 13978 ft | 359 kts | 102° |
| 2026-04-25 23:51 | 47.88284 | 15.56384 | 13737 ft | 357 kts | 104° |
| 2026-04-25 23:52 | 47.87616 | 15.59943 | 13463 ft | 356 kts | 104° |
| 2026-04-25 23:52 | 47.86959 | 15.63498 | 13209 ft | 357 kts | 103° |
| 2026-04-25 23:52 | 47.86318 | 15.67069 | 13083 ft | 358 kts | 102° |
| 2026-04-25 23:52 | 47.85693 | 15.70651 | 13048 ft | 358 kts | 103° |
| 2026-04-25 23:53 | 47.85078 | 15.74227 | 13043 ft | 355 kts | 102° |
| 2026-04-25 23:53 | 47.84467 | 15.77792 | 13030 ft | 356 kts | 102° |
| 2026-04-25 23:53 | 47.83860 | 15.81380 | 13032 ft | 359 kts | 102° |
| 2026-04-25 23:53 | 47.83384 | 15.84978 | 13023 ft | 352 kts | 92° |
| 2026-04-25 23:54 | 47.83460 | 15.88591 | 13024 ft | 346 kts | 80° |
| 2026-04-25 23:54 | 47.83774 | 15.92139 | 13030 ft | 346 kts | 80° |
| 2026-04-25 23:54 | 47.84078 | 15.95700 | 13028 ft | 345 kts | 80° |
| 2026-04-25 23:54 | 47.84368 | 15.99191 | 12957 ft | 334 kts | 80° |
| 2026-04-25 23:55 | 47.84642 | 16.02577 | 12822 ft | 325 kts | 80° |
| 2026-04-25 23:55 | 47.84907 | 16.05878 | 12552 ft | 320 kts | 80° |
| 2026-04-25 23:55 | 47.85167 | 16.09158 | 12149 ft | 319 kts | 80° |
| 2026-04-25 23:55 | 47.85429 | 16.12442 | 11766 ft | 318 kts | 80° |
| 2026-04-25 23:56 | 47.85688 | 16.15701 | 11444 ft | 316 kts | 80° |
| 2026-04-25 23:56 | 47.85943 | 16.18944 | 11092 ft | 315 kts | 80° |
| 2026-04-25 23:56 | 47.86192 | 16.22140 | 10751 ft | 314 kts | 80° |
| 2026-04-25 23:56 | 47.86441 | 16.25352 | 10439 ft | 311 kts | 80° |
| 2026-04-25 23:57 | 47.86691 | 16.28545 | 10101 ft | 310 kts | 81° |
| 2026-04-25 23:57 | 47.86937 | 16.31728 | 9769 ft | 309 kts | 81° |
| 2026-04-25 23:57 | 47.87181 | 16.34907 | 9429 ft | 308 kts | 80° |
| 2026-04-25 23:57 | 47.87424 | 16.38062 | 9092 ft | 306 kts | 80° |
| 2026-04-25 23:58 | 47.87663 | 16.41198 | 8764 ft | 304 kts | 80° |
| 2026-04-25 23:58 | 47.87900 | 16.44317 | 8417 ft | 303 kts | 80° |
| 2026-04-25 23:58 | 47.88138 | 16.47440 | 8103 ft | 302 kts | 79° |
| 2026-04-25 23:58 | 47.88370 | 16.50534 | 7774 ft | 300 kts | 79° |
| 2026-04-25 23:59 | 47.88603 | 16.53622 | 7451 ft | 300 kts | 80° |
| 2026-04-25 23:59 | 47.88834 | 16.56705 | 7120 ft | 299 kts | 80° |
| 2026-04-25 23:59 | 47.89064 | 16.59780 | 6808 ft | 298 kts | 79° |
| 2026-04-25 23:59 | 47.89292 | 16.62834 | 6551 ft | 295 kts | 79° |
| 2026-04-26 00:00 | 47.89518 | 16.65861 | 6300 ft | 292 kts | 79° |
| 2026-04-26 00:00 | 47.89739 | 16.68843 | 6093 ft | 285 kts | 79° |
| 2026-04-26 00:00 | 47.89951 | 16.71725 | 6023 ft | 275 kts | 79° |
| 2026-04-26 00:00 | 47.90154 | 16.74498 | 5993 ft | 263 kts | 79° |
| 2026-04-26 00:01 | 47.90346 | 16.77197 | 5995 ft | 260 kts | 79° |
| 2026-04-26 00:01 | 47.90535 | 16.79874 | 5997 ft | 260 kts | 79° |
| 2026-04-26 00:01 | 47.90718 | 16.82556 | 6001 ft | 260 kts | 79° |
| 2026-04-26 00:01 | 47.90901 | 16.85239 | 5996 ft | 259 kts | 79° |
| 2026-04-26 00:02 | 47.91080 | 16.87864 | 5910 ft | 251 kts | 79° |
| 2026-04-26 00:02 | 47.91250 | 16.90410 | 5746 ft | 242 kts | 79° |
| 2026-04-26 00:02 | 47.91412 | 16.92892 | 5510 ft | 239 kts | 79° |
| 2026-04-26 00:02 | 47.91754 | 16.95207 | 5127 ft | 227 kts | 54° |
| 2026-04-26 00:03 | 47.92748 | 16.96898 | 4736 ft | 212 kts | 27° |
| 2026-04-26 00:03 | 47.94039 | 16.97679 | 4356 ft | 195 kts | 354° |
| 2026-04-26 00:03 | 47.95287 | 16.97206 | 4049 ft | 183 kts | 329° |
| 2026-04-26 00:03 | 47.96380 | 16.96256 | 3814 ft | 182 kts | 326° |
| 2026-04-26 00:04 | 47.97456 | 16.95243 | 3570 ft | 183 kts | 326° |
| 2026-04-26 00:04 | 47.98494 | 16.94172 | 3308 ft | 179 kts | 313° |
| 2026-04-26 00:04 | 47.99203 | 16.92660 | 3094 ft | 176 kts | 304° |
| 2026-04-26 00:04 | 47.99844 | 16.91097 | 3058 ft | 178 kts | 302° |
| 2026-04-26 00:05 | 48.00446 | 16.89467 | 3021 ft | 180 kts | 300° |
| 2026-04-26 00:05 | 48.01018 | 16.87799 | 2995 ft | 180 kts | 299° |
| 2026-04-26 00:05 | 48.01578 | 16.86125 | 3005 ft | 181 kts | 299° |
| 2026-04-26 00:05 | 48.02134 | 16.84437 | 3011 ft | 182 kts | 298° |
| 2026-04-26 00:06 | 48.02687 | 16.82737 | 2996 ft | 182 kts | 298° |
| 2026-04-26 00:06 | 48.03241 | 16.81042 | 2986 ft | 181 kts | 298° |
| 2026-04-26 00:06 | 48.03787 | 16.79376 | 2988 ft | 174 kts | 298° |
| 2026-04-26 00:06 | 48.04132 | 16.78321 | 3029 ft | 167 kts | 298° |
| 2026-04-26 00:07 | 48.04631 | 16.76791 | 2996 ft | 161 kts | 299° |
| 2026-04-26 00:07 | 48.05103 | 16.75343 | 3004 ft | 148 kts | 299° |
| 2026-04-26 00:07 | 48.05538 | 16.74010 | 2983 ft | 139 kts | 299° |
| 2026-04-26 00:07 | 48.05962 | 16.72711 | 2788 ft | 137 kts | 299° |
| 2026-04-26 00:08 | 48.06380 | 16.71432 | 2622 ft | 137 kts | 299° |
| 2026-04-26 00:08 | 48.06797 | 16.70152 | 2439 ft | 137 kts | 299° |
| 2026-04-26 00:08 | 48.07217 | 16.68867 | 2261 ft | 138 kts | 299° |
| 2026-04-26 00:08 | 48.07639 | 16.67573 | 2081 ft | 137 kts | 298° |
| 2026-04-26 00:09 | 48.08048 | 16.66315 | 1883 ft | 131 kts | 297° |
| 2026-04-26 00:09 | 48.08430 | 16.65146 | 1739 ft | 121 kts | 297° |
| 2026-04-26 00:09 | 48.08790 | 16.64039 | 1575 ft | 117 kts | 298° |
| 2026-04-26 00:09 | 48.09153 | 16.62920 | 1420 ft | 124 kts | 297° |
| 2026-04-26 00:10 | 48.09537 | 16.61712 | 1261 ft | 132 kts | 297° |
| 2026-04-26 00:10 | 48.09945 | 16.60484 | 1039 ft | 132 kts | 298° |
| 2026-04-26 00:10 | 48.10353 | 16.59249 | 891 ft | 132 kts | 296° |
| 2026-04-26 00:10 | 48.10747 | 16.58036 | 695 ft | 127 kts | 296° |
| 2026-04-26 00:11 | 48.11124 | 16.56898 | 626 ft | 112 kts | 294° |
| 2026-04-26 00:11 | 48.11398 | 16.56049 | 626 ft | 65 kts | 296° |
| 2026-04-26 00:11 | 48.11547 | 16.55595 | 628 ft | 40 kts | 295° |
| 2026-04-26 00:11 | 48.11687 | 16.55305 | 628 ft | 31 kts | 316° |
| 2026-04-26 00:12 | 48.11784 | 16.55170 | 621 ft | 14 kts | 324° |
| 2026-04-26 00:12 | 48.11854 | 16.55141 | 620 ft | 4 kts | 7° |
| 2026-04-26 00:12 | 48.11888 | 16.55163 | 628 ft | 5 kts | 42° |
| 2026-04-26 00:12 | 48.11881 | 16.55215 | 628 ft | 6 kts | 118° |
| 2026-04-26 00:13 | 48.11847 | 16.55314 | 621 ft | 16 kts | 116° |
| 2026-04-26 00:13 | 48.11787 | 16.55503 | 621 ft | 21 kts | 115° |
| 2026-04-26 00:13 | 48.11723 | 16.55701 | 624 ft | 21 kts | 117° |
| 2026-04-26 00:13 | 48.11657 | 16.55899 | 628 ft | 21 kts | 115° |
| 2026-04-26 00:14 | 48.11596 | 16.56090 | 624 ft | 18 kts | 115° |
| 2026-04-26 00:14 | 48.11617 | 16.56196 | 618 ft | 10 kts | 40° |
| 2026-04-26 00:14 | 48.11676 | 16.56258 | 628 ft | 10 kts | 26° |
| 2026-04-26 00:14 | 48.11740 | 16.56305 | 623 ft | 10 kts | 26° |
| 2026-04-26 00:15 | 48.11789 | 16.56295 | 628 ft | 6 kts | 314° |
| 2026-04-26 00:15 | 48.11808 | 16.56252 | 625 ft | 4 kts | 302° |
| 2026-04-26 00:15 | 48.11818 | 16.56230 | 626 ft | 2 kts | 303° |
| 2026-04-26 00:15 | 48.11820 | 16.56224 | 622 ft | 0 kts | 303° |